createdAt,value
2019-05-23T00:04:18.594Z,13.97
2019-05-23T00:09:21.843Z,12.43
2019-05-23T00:14:29.644Z,13.30
2019-05-23T00:19:32.616Z,12.93
2019-05-23T00:24:35.308Z,12.30
2019-05-23T00:29:40.393Z,12.53
2019-05-23T00:34:40.754Z,12.07
2019-05-23T00:39:43.578Z,13.20
2019-05-23T00:44:46.230Z,13.30
2019-05-23T00:49:48.945Z,14.77
2019-05-23T00:54:51.500Z,11.93
2019-05-23T00:59:54.048Z,12.27
2019-05-23T01:04:56.730Z,12.13
2019-05-23T01:09:59.362Z,12.83
2019-05-23T01:15:02.573Z,13.33
2019-05-23T01:20:06.176Z,13.83
2019-05-23T01:25:08.928Z,13.77
2019-05-23T01:30:12.822Z,12.73
2019-05-23T01:35:19.310Z,13.17
2019-05-23T01:40:21.982Z,12.57
2019-05-23T01:45:24.574Z,12.67
2019-05-23T01:50:27.256Z,11.33
2019-05-23T01:55:29.860Z,12.93
2019-05-23T02:00:32.566Z,12.57
2019-05-23T02:05:35.255Z,11.83
2019-05-23T02:10:38.154Z,11.77
2019-05-23T02:15:40.838Z,13.20
2019-05-23T02:20:43.482Z,11.80
2019-05-23T02:25:46.178Z,11.10
2019-05-23T02:30:48.906Z,13.77
2019-05-23T02:35:51.468Z,10.90
2019-05-23T02:40:58.558Z,11.53
2019-05-23T02:46:01.275Z,11.80
2019-05-23T02:51:04.917Z,12.43
2019-05-23T02:56:08.535Z,11.43
2019-05-23T03:01:25.156Z,11.47
2019-05-23T03:06:27.723Z,11.30
2019-05-23T03:11:33.408Z,13.60
2019-05-23T03:16:36.105Z,10.90
2019-05-23T03:21:38.779Z,11.67
2019-05-23T03:26:55.029Z,10.40
2019-05-23T03:32:13.082Z,9.27
2019-05-23T03:37:15.769Z,12.73
2019-05-23T03:42:18.432Z,10.30
2019-05-23T03:47:21.154Z,11.03
2019-05-23T03:52:23.830Z,12.50
2019-05-23T03:57:26.782Z,11.10
2019-05-23T04:02:29.488Z,12.00
2019-05-23T04:07:32.048Z,10.43
2019-05-23T04:12:34.682Z,12.77
2019-05-23T04:17:37.353Z,11.80
2019-05-23T04:22:40.022Z,13.33
2019-05-23T04:27:42.576Z,11.90
2019-05-23T04:32:45.160Z,11.40
2019-05-23T04:37:54.273Z,11.67
2019-05-23T04:42:56.988Z,11.63
2019-05-23T04:47:59.668Z,13.13
2019-05-23T04:53:02.256Z,13.37
2019-05-23T04:58:05.159Z,12.50
2019-05-23T05:03:07.640Z,12.07
2019-05-23T05:08:10.588Z,12.97
2019-05-23T05:13:13.248Z,13.67
2019-05-23T05:18:15.900Z,14.33
2019-05-23T05:23:18.403Z,12.50
2019-05-23T05:28:21.016Z,13.50
2019-05-23T05:33:23.617Z,14.40
2019-05-23T05:38:28.609Z,14.13
2019-05-23T05:43:28.969Z,14.63
2019-05-23T05:48:31.678Z,17.17
2019-05-23T05:53:34.470Z,16.53
2019-05-23T05:58:37.032Z,14.83
2019-05-23T06:03:39.777Z,16.00
2019-05-23T06:08:43.466Z,16.87
2019-05-23T06:13:46.102Z,16.40
2019-05-23T06:18:49.003Z,16.33
2019-05-23T06:23:51.996Z,17.70
2019-05-23T06:28:54.712Z,17.40
2019-05-23T06:33:57.412Z,17.23
2019-05-23T06:39:00.016Z,17.93
2019-05-23T06:44:02.758Z,18.03
2019-05-23T06:49:05.232Z,17.60
2019-05-23T06:54:07.958Z,15.53
2019-05-23T06:59:10.670Z,15.73
2019-05-23T07:04:13.327Z,15.53
2019-05-23T07:09:16.248Z,14.67
2019-05-23T07:14:18.909Z,13.47
2019-05-23T07:19:21.548Z,13.73
2019-05-23T07:24:24.488Z,13.70
2019-05-23T07:29:27.114Z,13.97
2019-05-23T07:34:29.693Z,11.50
2019-05-23T07:39:32.269Z,11.10
2019-05-23T07:44:47.367Z,6.90
2019-05-23T07:49:37.540Z,6.13
2019-05-23T07:54:49.591Z,7.80
2019-05-23T07:59:52.244Z,7.77
2019-05-23T08:04:54.918Z,12.63
2019-05-23T08:09:57.649Z,13.57
2019-05-23T08:15:00.248Z,8.90
2019-05-23T08:20:02.954Z,11.47
2019-05-23T08:25:05.566Z,7.93
2019-05-23T08:30:08.262Z,7.63
2019-05-23T08:35:15.671Z,8.00
2019-05-23T08:40:13.874Z,7.67
2019-05-23T08:45:16.880Z,7.13
2019-05-23T08:50:19.616Z,7.67
2019-05-23T08:55:22.359Z,9.03
2019-05-23T09:00:25.313Z,8.03
2019-05-23T09:05:28.245Z,7.43
2019-05-23T09:10:30.890Z,7.20
2019-05-23T09:15:33.468Z,6.67
2019-05-23T09:20:36.220Z,6.57
2019-05-23T09:25:38.812Z,7.93
2019-05-23T09:30:41.418Z,7.53
2019-05-23T09:35:44.014Z,6.93
2019-05-23T09:40:46.616Z,8.30
2019-05-23T09:45:49.174Z,7.70
2019-05-23T09:50:51.707Z,7.80
2019-05-23T09:55:55.884Z,7.37
2019-05-23T10:00:56.886Z,6.73
2019-05-23T10:05:59.464Z,7.43
2019-05-23T10:11:02.172Z,7.90
2019-05-23T10:16:06.807Z,7.57
2019-05-23T10:21:09.488Z,8.40
2019-05-23T10:26:12.396Z,8.53
2019-05-23T10:31:15.114Z,7.67
2019-05-23T10:36:17.797Z,8.53
2019-05-23T10:41:20.424Z,7.10
2019-05-23T10:46:22.964Z,8.23
2019-05-23T10:51:25.518Z,7.43
2019-05-23T10:56:28.070Z,7.90
2019-05-23T11:01:30.792Z,8.00
2019-05-23T11:06:33.402Z,8.30
2019-05-23T11:11:35.963Z,7.37
2019-05-23T11:16:38.859Z,8.07
2019-05-23T11:21:41.439Z,7.60
2019-05-23T11:26:44.156Z,6.23
2019-05-23T11:31:46.807Z,8.07
2019-05-23T11:36:49.393Z,7.33
2019-05-23T11:41:52.065Z,8.00
2019-05-23T11:46:54.708Z,7.40
2019-05-23T11:51:57.373Z,7.77
2019-05-23T11:57:00.041Z,7.67
2019-05-23T12:02:07.302Z,9.50
2019-05-23T12:07:13.542Z,7.40
2019-05-23T12:12:16.266Z,6.60
2019-05-23T12:17:18.930Z,6.87
2019-05-23T12:22:21.552Z,7.60
2019-05-23T12:27:24.273Z,7.03
2019-05-23T12:32:26.890Z,7.40
2019-05-23T12:37:29.581Z,6.20
2019-05-23T12:42:32.172Z,7.90
2019-05-23T12:47:47.903Z,8.53
2019-05-23T12:52:50.541Z,6.77
2019-05-23T12:57:53.107Z,7.00
2019-05-23T13:02:55.766Z,8.17
2019-05-23T13:07:58.501Z,7.43
2019-05-23T13:13:01.115Z,8.77
2019-05-23T13:18:03.925Z,7.90
2019-05-23T13:23:07.165Z,8.00
2019-05-23T13:28:09.352Z,8.00
2019-05-23T13:33:12.074Z,7.03
2019-05-23T13:38:14.638Z,7.63
2019-05-23T13:43:17.283Z,6.93
2019-05-23T13:48:19.923Z,8.23
2019-05-23T13:53:22.610Z,8.10
2019-05-23T13:58:25.229Z,6.47
2019-05-23T14:03:27.806Z,8.87
2019-05-23T14:08:30.357Z,7.80
2019-05-23T14:13:33.254Z,6.40
2019-05-23T14:18:36.747Z,6.93
2019-05-23T14:23:39.376Z,4.70
2019-05-23T14:28:42.461Z,8.27
2019-05-23T14:34:17.110Z,5.83
2019-05-23T14:39:26.176Z,7.50
2019-05-23T14:44:28.856Z,6.33
2019-05-23T14:49:33.866Z,9.57
2019-05-23T14:54:39.823Z,5.57
2019-05-23T14:59:42.503Z,5.37
2019-05-23T15:04:45.142Z,6.40
2019-05-23T15:09:47.688Z,4.90
2019-05-23T15:14:50.340Z,4.63
2019-05-23T15:19:52.968Z,7.60
2019-05-23T15:24:55.570Z,6.57
2019-05-23T15:29:58.180Z,7.47
2019-05-23T15:35:00.800Z,6.50
2019-05-23T15:40:03.782Z,5.73
2019-05-23T15:45:06.498Z,5.50
2019-05-23T15:50:11.294Z,6.73
2019-05-23T15:55:34.324Z,6.10
2019-05-23T16:00:42.522Z,7.70
2019-05-23T16:05:45.550Z,6.60
2019-05-23T16:10:48.234Z,6.47
2019-05-23T16:15:50.859Z,6.57
2019-05-23T16:20:53.430Z,5.00
2019-05-23T16:25:55.974Z,7.00
2019-05-23T16:30:58.657Z,5.97
2019-05-23T16:36:01.291Z,7.40
2019-05-23T16:41:04.174Z,6.40
2019-05-23T16:46:06.896Z,7.33
2019-05-23T16:51:09.577Z,6.50
2019-05-23T16:56:16.505Z,6.20
2019-05-23T17:01:28.608Z,5.67
2019-05-23T17:06:35.809Z,8.47
2019-05-23T17:11:43.109Z,6.87
2019-05-23T17:16:51.089Z,4.97
2019-05-23T17:23:00.115Z,5.80
2019-05-23T17:28:14.164Z,4.60
2019-05-23T17:33:16.868Z,5.10
2019-05-23T17:38:19.568Z,5.40
2019-05-23T17:43:22.194Z,6.00
2019-05-23T17:48:24.863Z,4.43
2019-05-23T17:53:27.469Z,5.07
2019-05-23T17:58:30.201Z,5.13
2019-05-23T18:03:33.003Z,5.00
2019-05-23T18:08:35.790Z,4.53
2019-05-23T18:13:38.536Z,5.00
2019-05-23T18:18:41.459Z,4.10
2019-05-23T18:23:44.146Z,6.23
2019-05-23T18:28:46.797Z,7.30
2019-05-23T18:33:49.666Z,4.90
2019-05-23T18:38:52.772Z,4.93
2019-05-23T18:43:55.346Z,5.20
2019-05-23T18:48:58.039Z,5.97
2019-05-23T18:54:00.715Z,3.70
2019-05-23T18:59:03.434Z,4.17
2019-05-23T19:04:06.104Z,4.93
2019-05-23T19:09:09.259Z,6.03
2019-05-23T19:14:11.978Z,5.50
2019-05-23T19:19:14.698Z,7.40
2019-05-23T19:24:17.378Z,5.73
2019-05-23T19:29:20.094Z,5.60
2019-05-23T19:34:22.724Z,4.80
2019-05-23T19:39:25.258Z,5.73
2019-05-23T19:44:27.852Z,4.83
2019-05-23T19:49:30.520Z,5.33
2019-05-23T19:54:33.116Z,5.17
2019-05-23T19:59:35.733Z,7.90
2019-05-23T20:04:40.150Z,5.40
2019-05-23T20:09:42.810Z,6.10
2019-05-23T20:14:45.359Z,6.10
2019-05-23T20:19:50.412Z,6.80
2019-05-23T20:24:50.582Z,7.83
2019-05-23T20:29:53.358Z,6.87
2019-05-23T20:34:56.051Z,8.03
2019-05-23T20:39:58.672Z,6.87
2019-05-23T20:45:01.236Z,7.03
2019-05-23T20:50:03.960Z,7.03
2019-05-23T20:55:06.676Z,6.93
2019-05-23T21:00:09.684Z,8.13
2019-05-23T21:05:12.404Z,8.53
2019-05-23T21:10:15.473Z,7.03
2019-05-23T21:15:18.045Z,7.27
2019-05-23T21:20:20.706Z,6.50
2019-05-23T21:25:23.246Z,7.73
2019-05-23T21:30:25.897Z,8.47
2019-05-23T21:35:28.444Z,7.80
2019-05-23T21:40:47.978Z,7.80
2019-05-23T21:45:50.614Z,8.20
2019-05-23T21:50:53.195Z,7.53
2019-05-23T21:55:55.854Z,7.67
2019-05-23T22:01:07.580Z,6.63
2019-05-23T22:06:10.450Z,7.93
2019-05-23T22:11:13.035Z,8.17
2019-05-23T22:16:15.724Z,8.33
2019-05-23T22:21:18.288Z,11.20
2019-05-23T22:26:20.954Z,8.83
2019-05-23T22:31:23.682Z,8.10
2019-05-23T22:36:26.341Z,8.83
2019-05-23T22:41:29.026Z,9.67
2019-05-23T22:46:31.740Z,8.23
2019-05-23T22:51:34.362Z,8.73
2019-05-23T22:56:43.135Z,8.57
2019-05-23T23:01:51.925Z,10.77
2019-05-23T23:07:02.238Z,9.13
2019-05-23T23:12:10.826Z,9.77
2019-05-23T23:17:19.724Z,8.13
2019-05-23T23:22:28.393Z,8.13
2019-05-23T23:27:37.273Z,8.90
2019-05-23T23:32:46.218Z,8.37
2019-05-23T23:37:55.054Z,9.30
2019-05-23T23:43:03.894Z,8.97
2019-05-23T23:48:18.475Z,9.27
2019-05-23T23:53:33.054Z,9.07
2019-05-23T23:58:41.247Z,8.23
